sensor_id;sensor_type;location;lat;lon;timestamp;pressure;altitude;pressure_sealevel;temperature;humidity
55932;BME280;41837;55.700;37.984;2023-03-03T00:01:24;98713.72;;;-3.04;100.00
55932;BME280;41837;55.700;37.984;2023-03-03T00:03:52;98716.28;;;-3.03;100.00
55932;BME280;41837;55.700;37.984;2023-03-03T00:06:19;98711.16;;;-3.01;100.00
55932;BME280;41837;55.700;37.984;2023-03-03T00:08:46;98711.16;;;-2.96;100.00
55932;BME280;41837;55.700;37.984;2023-03-03T00:11:12;98678.84;;;-3.14;100.00
55932;BME280;41837;55.700;37.984;2023-03-03T00:13:50;98696.66;;;-2.99;100.00
55932;BME280;41837;55.700;37.984;2023-03-03T00:16:34;98691.56;;;-3.01;100.00
55932;BME280;41837;55.700;37.984;2023-03-03T00:19:02;98683.84;;;-2.88;100.00
55932;BME280;41837;55.700;37.984;2023-03-03T00:21:32;98691.53;;;-2.93;100.00
55932;BME280;41837;55.700;37.984;2023-03-03T00:26:54;98694.88;;;-2.85;100.00
55932;BME280;41837;55.700;37.984;2023-03-03T00:29:35;98676.16;;;-2.91;100.00
55932;BME280;41837;55.700;37.984;2023-03-03T00:34:42;98679.47;;;-2.75;100.00
55932;BME280;41837;55.700;37.984;2023-03-03T00:37:32;98665.00;;;-2.75;100.00
55932;BME280;41837;55.700;37.984;2023-03-03T00:40:18;98676.91;;;-2.72;100.00
55932;BME280;41837;55.700;37.984;2023-03-03T00:42:53;98656.44;;;-2.75;100.00
55932;BME280;41837;55.700;37.984;2023-03-03T00:45:56;98658.16;;;-2.73;100.00
55932;BME280;41837;55.700;37.984;2023-03-03T00:53:48;98654.69;;;-2.64;100.00
55932;BME280;41837;55.700;37.984;2023-03-03T00:56:15;98640.22;;;-2.70;100.00
55932;BME280;41837;55.700;37.984;2023-03-03T00:58:41;98638.47;;;-2.65;100.00
55932;BME280;41837;55.700;37.984;2023-03-03T01:01:09;98629.91;;;-2.62;100.00
55932;BME280;41837;55.700;37.984;2023-03-03T01:03:42;98619.72;;;-2.67;100.00
55932;BME280;41837;55.700;37.984;2023-03-03T01:06:09;98631.63;;;-2.63;100.00
55932;BME280;41837;55.700;37.984;2023-03-03T01:08:35;98634.09;;;-2.53;100.00
55932;BME280;41837;55.700;37.984;2023-03-03T01:11:21;98626.56;;;-2.67;100.00
55932;BME280;41837;55.700;37.984;2023-03-03T01:13:50;98638.44;;;-2.60;100.00
55932;BME280;41837;55.700;37.984;2023-03-03T01:16:17;98644.34;;;-2.53;100.00
55932;BME280;41837;55.700;37.984;2023-03-03T01:18:44;98635.84;;;-2.57;100.00
55932;BME280;41837;55.700;37.984;2023-03-03T01:21:10;98635.03;;;-2.64;100.00
55932;BME280;41837;55.700;37.984;2023-03-03T01:23:38;98638.38;;;-2.51;100.00
55932;BME280;41837;55.700;37.984;2023-03-03T01:26:05;98642.59;;;-2.47;100.00
55932;BME280;41837;55.700;37.984;2023-03-03T01:28:32;98632.34;;;-2.47;100.00
55932;BME280;41837;55.700;37.984;2023-03-03T01:31:00;98627.22;;;-2.44;100.00
55932;BME280;41837;55.700;37.984;2023-03-03T01:33:27;98628.03;;;-2.40;100.00
55932;BME280;41837;55.700;37.984;2023-03-03T01:35:53;98620.38;;;-2.45;100.00
55932;BME280;41837;55.700;37.984;2023-03-03T01:38:19;98619.53;;;-2.44;100.00
55932;BME280;41837;55.700;37.984;2023-03-03T01:40:52;98622.06;;;-2.39;100.00
55932;BME280;41837;55.700;37.984;2023-03-03T01:43:19;98621.16;;;-2.33;100.00
55932;BME280;41837;55.700;37.984;2023-03-03T01:48:27;98612.69;;;-2.40;100.00
55932;BME280;41837;55.700;37.984;2023-03-03T01:50:58;98619.47;;;-2.36;100.00
55932;BME280;41837;55.700;37.984;2023-03-03T01:53:44;98625.41;;;-2.32;100.00
55932;BME280;41837;55.700;37.984;2023-03-03T01:56:12;98611.75;;;-2.34;100.00
55932;BME280;41837;55.700;37.984;2023-03-03T01:58:42;98610.09;;;-2.38;100.00
55932;BME280;41837;55.700;37.984;2023-03-03T02:01:22;98609.19;;;-2.31;100.00
55932;BME280;41837;55.700;37.984;2023-03-03T02:03:49;98611.69;;;-2.27;100.00
55932;BME280;41837;55.700;37.984;2023-03-03T02:06:19;98606.59;;;-2.30;100.00
55932;BME280;41837;55.700;37.984;2023-03-03T02:11:15;98592.19;;;-2.40;100.00
55932;BME280;41837;55.700;37.984;2023-03-03T02:13:41;98614.22;;;-2.22;100.00
55932;BME280;41837;55.700;37.984;2023-03-03T02:16:07;98606.53;;;-2.22;100.00
55932;BME280;41837;55.700;37.984;2023-03-03T02:18:34;98600.59;;;-2.26;100.00
55932;BME280;41837;55.700;37.984;2023-03-03T02:21:10;98605.63;;;-2.18;100.00
55932;BME280;41837;55.700;37.984;2023-03-03T02:23:55;98595.47;;;-2.24;100.00
55932;BME280;41837;55.700;37.984;2023-03-03T02:26:29;98591.16;;;-2.19;100.00
55932;BME280;41837;55.700;37.984;2023-03-03T02:29:01;98582.59;;;-2.18;100.00
55932;BME280;41837;55.700;37.984;2023-03-03T02:31:29;98582.59;;;-2.19;100.00
55932;BME280;41837;55.700;37.984;2023-03-03T02:33:56;98578.28;;;-2.14;100.00
55932;BME280;41837;55.700;37.984;2023-03-03T02:36:29;98575.78;;;-2.19;100.00
55932;BME280;41837;55.700;37.984;2023-03-03T02:39:17;98569.75;;;-2.13;100.00
55932;BME280;41837;55.700;37.984;2023-03-03T02:44:30;98564.59;;;-2.10;100.00
55932;BME280;41837;55.700;37.984;2023-03-03T02:46:58;98547.50;;;-2.10;100.00
55932;BME280;41837;55.700;37.984;2023-03-03T02:49:26;98541.59;;;-2.15;100.00
55932;BME280;41837;55.700;37.984;2023-03-03T02:51:54;98545.81;;;-2.11;100.00
55932;BME280;41837;55.700;37.984;2023-03-03T02:54:21;98547.47;;;-2.05;100.00
55932;BME280;41837;55.700;37.984;2023-03-03T02:56:50;98540.66;;;-2.08;100.00
55932;BME280;41837;55.700;37.984;2023-03-03T02:59:16;98540.69;;;-2.12;100.00
55932;BME280;41837;55.700;37.984;2023-03-03T03:01:46;98540.63;;;-2.04;100.00
55932;BME280;41837;55.700;37.984;2023-03-03T03:04:18;98522.72;;;-2.08;100.00
55932;BME280;41837;55.700;37.984;2023-03-03T03:06:51;98542.28;;;-2.00;100.00
55932;BME280;41837;55.700;37.984;2023-03-03T03:09:19;98541.38;;;-1.96;100.00
55932;BME280;41837;55.700;37.984;2023-03-03T03:11:48;98541.34;;;-1.93;100.00
55932;BME280;41837;55.700;37.984;2023-03-03T03:14:18;98535.38;;;-1.94;100.00
55932;BME280;41837;55.700;37.984;2023-03-03T03:16:45;98537.91;;;-1.92;100.00
55932;BME280;41837;55.700;37.984;2023-03-03T03:19:11;98543.06;;;-1.95;100.00
55932;BME280;41837;55.700;37.984;2023-03-03T03:21:39;98541.34;;;-1.93;100.00
55932;BME280;41837;55.700;37.984;2023-03-03T03:24:06;98549.91;;;-1.94;100.00
55932;BME280;41837;55.700;37.984;2023-03-03T03:26:34;98544.75;;;-1.93;100.00
55932;BME280;41837;55.700;37.984;2023-03-03T03:29:00;98548.16;;;-1.92;100.00
55932;BME280;41837;55.700;37.984;2023-03-03T03:31:26;98538.91;;;-2.04;100.00
55932;BME280;41837;55.700;37.984;2023-03-03T03:33:52;98528.78;;;-2.12;100.00
55932;BME280;41837;55.700;37.984;2023-03-03T03:36:20;98532.19;;;-2.14;100.00
55932;BME280;41837;55.700;37.984;2023-03-03T03:38:47;98540.63;;;-2.03;100.00
55932;BME280;41837;55.700;37.984;2023-03-03T03:41:13;98529.59;;;-2.10;100.00
55932;BME280;41837;55.700;37.984;2023-03-03T03:43:39;98540.63;;;-2.03;100.00
55932;BME280;41837;55.700;37.984;2023-03-03T03:46:07;98532.16;;;-2.10;100.00
55932;BME280;41837;55.700;37.984;2023-03-03T03:48:34;98540.66;;;-2.08;100.00
55932;BME280;41837;55.700;37.984;2023-03-03T03:51:02;98538.13;;;-2.12;100.00
55932;BME280;41837;55.700;37.984;2023-03-03T03:53:30;98542.38;;;-2.08;100.00
55932;BME280;41837;55.700;37.984;2023-03-03T03:55:56;98547.69;;;-2.23;100.00
55932;BME280;41837;55.700;37.984;2023-03-03T03:58:22;98531.56;;;-2.33;100.00
55932;BME280;41837;55.700;37.984;2023-03-03T04:01:00;98541.66;;;-2.21;100.00
55932;BME280;41837;55.700;37.984;2023-03-03T04:03:26;98530.63;;;-2.26;100.00
55932;BME280;41837;55.700;37.984;2023-03-03T04:05:52;98542.56;;;-2.25;100.00
55932;BME280;41837;55.700;37.984;2023-03-03T04:08:20;98532.38;;;-2.30;100.00
55932;BME280;41837;55.700;37.984;2023-03-03T04:10:47;98535.75;;;-2.26;100.00
55932;BME280;41837;55.700;37.984;2023-03-03T04:13:13;98536.63;;;-2.29;100.00
55932;BME280;41837;55.700;37.984;2023-03-03T04:15:40;98540.00;;;-2.23;100.00
55932;BME280;41837;55.700;37.984;2023-03-03T04:18:07;98526.44;;;-2.33;100.00
55932;BME280;41837;55.700;37.984;2023-03-03T04:20:34;98528.06;;;-2.28;100.00
55932;BME280;41837;55.700;37.984;2023-03-03T04:23:01;98515.28;;;-2.28;100.00
55932;BME280;41837;55.700;37.984;2023-03-03T04:25:29;98531.47;;;-2.24;100.00
55932;BME280;41837;55.700;37.984;2023-03-03T04:27:56;98519.59;;;-2.31;100.00
55932;BME280;41837;55.700;37.984;2023-03-03T04:30:22;98517.81;;;-2.25;100.00
55932;BME280;41837;55.700;37.984;2023-03-03T04:32:52;98529.75;;;-2.23;100.00
55932;BME280;41837;55.700;37.984;2023-03-03T04:35:21;98526.34;;;-2.24;100.00
55932;BME280;41837;55.700;37.984;2023-03-03T04:37:48;98526.28;;;-2.21;100.00
55932;BME280;41837;55.700;37.984;2023-03-03T04:40:15;98525.41;;;-2.17;100.00
55932;BME280;41837;55.700;37.984;2023-03-03T04:42:45;98521.25;;;-2.26;100.00
55932;BME280;41837;55.700;37.984;2023-03-03T04:45:12;98532.22;;;-2.17;100.00
55932;BME280;41837;55.700;37.984;2023-03-03T04:47:40;98537.38;;;-2.19;100.00
55932;BME280;41837;55.700;37.984;2023-03-03T04:50:08;98523.72;;;-2.18;100.00
55932;BME280;41837;55.700;37.984;2023-03-03T04:52:34;98530.50;;;-2.14;100.00
55932;BME280;41837;55.700;37.984;2023-03-03T04:55:02;98530.44;;;-2.09;100.00
55932;BME280;41837;55.700;37.984;2023-03-03T04:57:29;98531.34;;;-2.13;100.00
55932;BME280;41837;55.700;37.984;2023-03-03T04:59:56;98533.88;;;-2.12;100.00
55932;BME280;41837;55.700;37.984;2023-03-03T05:02:22;98531.34;;;-2.13;100.00
55932;BME280;41837;55.700;37.984;2023-03-03T05:04:48;98532.03;;;-2.00;100.00
55932;BME280;41837;55.700;37.984;2023-03-03T05:07:14;98521.84;;;-2.03;100.00
55932;BME280;41837;55.700;37.984;2023-03-03T05:09:42;98514.03;;;-1.94;100.00
55932;BME280;41837;55.700;37.984;2023-03-03T05:12:09;98531.13;;;-1.93;100.00
55932;BME280;41837;55.700;37.984;2023-03-03T05:14:38;98528.63;;;-1.99;100.00
55932;BME280;41837;55.700;37.984;2023-03-03T05:17:05;98508.13;;;-1.99;100.00
55932;BME280;41837;55.700;37.984;2023-03-03T05:19:31;98525.00;;;-1.81;100.00
55932;BME280;41837;55.700;37.984;2023-03-03T05:22:00;98524.97;;;-1.80;100.00
55932;BME280;41837;55.700;37.984;2023-03-03T05:24:28;98514.75;;;-1.83;100.00
55932;BME280;41837;55.700;37.984;2023-03-03T05:26:54;98520.63;;;-1.75;100.00
55932;BME280;41837;55.700;37.984;2023-03-03T05:29:20;98518.19;;;-1.85;100.00
55932;BME280;41837;55.700;37.984;2023-03-03T05:31:46;98523.41;;;-1.92;100.00
55932;BME280;41837;55.700;37.984;2023-03-03T05:34:13;98521.53;;;-1.80;100.00
55932;BME280;41837;55.700;37.984;2023-03-03T05:36:39;98522.41;;;-1.80;100.00
55932;BME280;41837;55.700;37.984;2023-03-03T05:39:05;98515.53;;;-1.76;100.00
55932;BME280;41837;55.700;37.984;2023-03-03T05:41:31;98520.66;;;-1.78;100.00
55932;BME280;41837;55.700;37.984;2023-03-03T05:44:02;98512.75;;;-1.61;100.00
55932;BME280;41837;55.700;37.984;2023-03-03T05:46:28;98514.41;;;-1.58;100.00
55932;BME280;41837;55.700;37.984;2023-03-03T05:48:55;98496.47;;;-1.58;100.00
55932;BME280;41837;55.700;37.984;2023-03-03T05:51:21;98512.56;;;-1.48;100.00
55932;BME280;41837;55.700;37.984;2023-03-03T05:53:47;98496.38;;;-1.49;100.00
55932;BME280;41837;55.700;37.984;2023-03-03T05:56:13;98503.25;;;-1.53;100.00
55932;BME280;41837;55.700;37.984;2023-03-03T05:58:39;98498.41;;;-1.74;100.00
55932;BME280;41837;55.700;37.984;2023-03-03T06:01:06;98517.94;;;-1.65;100.00
55932;BME280;41837;55.700;37.984;2023-03-03T06:03:32;98499.13;;;-1.63;100.00
55932;BME280;41837;55.700;37.984;2023-03-03T06:05:58;98521.13;;;-1.50;100.00
55932;BME280;41837;55.700;37.984;2023-03-03T06:08:24;98524.59;;;-1.52;100.00
55932;BME280;41837;55.700;37.984;2023-03-03T06:10:51;98512.84;;;-1.67;100.00
55932;BME280;41837;55.700;37.984;2023-03-03T06:13:17;98512.47;;;-1.41;100.00
55932;BME280;41837;55.700;37.984;2023-03-03T06:15:43;98508.84;;;-1.27;100.00
55932;BME280;41837;55.700;37.984;2023-03-03T06:18:10;98500.31;;;-1.29;100.00
55932;BME280;41837;55.700;37.984;2023-03-03T06:20:36;98514.63;;;-1.15;100.00
55932;BME280;41837;55.700;37.984;2023-03-03T06:23:03;98508.41;;;-0.98;100.00
55932;BME280;41837;55.700;37.984;2023-03-03T06:25:30;98504.88;;;-0.92;100.00
55932;BME280;41837;55.700;37.984;2023-03-03T06:27:57;98500.94;;;-1.12;100.00
55932;BME280;41837;55.700;37.984;2023-03-03T06:30:23;98508.47;;;-1.03;100.00
55932;BME280;41837;55.700;37.984;2023-03-03T06:32:49;98480.72;;;-1.30;100.00
55932;BME280;41837;55.700;37.984;2023-03-03T06:35:15;98489.94;;;-1.19;100.00
55932;BME280;41837;55.700;37.984;2023-03-03T06:37:43;98489.31;;;-1.35;100.00
55932;BME280;41837;55.700;37.984;2023-03-03T06:40:09;98503.53;;;-1.14;100.00
55932;BME280;41837;55.700;37.984;2023-03-03T06:42:35;98503.81;;;-1.32;100.00
55932;BME280;41837;55.700;37.984;2023-03-03T06:45:02;98505.31;;;-1.19;100.00
55932;BME280;41837;55.700;37.984;2023-03-03T06:47:29;98512.00;;;-1.10;100.00
55932;BME280;41837;55.700;37.984;2023-03-03T06:49:56;98491.53;;;-1.13;100.00
55932;BME280;41837;55.700;37.984;2023-03-03T06:52:25;98484.72;;;-1.16;100.00
55932;BME280;41837;55.700;37.984;2023-03-03T06:54:54;98495.72;;;-1.07;100.00
55932;BME280;41837;55.700;37.984;2023-03-03T06:57:30;98468.94;;;-0.91;100.00
55932;BME280;41837;55.700;37.984;2023-03-03T07:00:06;98481.47;;;-0.74;100.00
55932;BME280;41837;55.700;37.984;2023-03-03T07:02:37;98477.34;;;-0.83;100.00
55932;BME280;41837;55.700;37.984;2023-03-03T07:05:06;98483.41;;;-0.88;100.00
55932;BME280;41837;55.700;37.984;2023-03-03T07:07:36;98490.44;;;-0.98;100.00
55932;BME280;41837;55.700;37.984;2023-03-03T07:10:10;98493.03;;;-1.00;100.00
55932;BME280;41837;55.700;37.984;2023-03-03T07:12:38;98488.72;;;-0.98;100.00
55932;BME280;41837;55.700;37.984;2023-03-03T07:15:37;98495.59;;;-1.00;100.00
55932;BME280;41837;55.700;37.984;2023-03-03T07:18:16;98486.91;;;-0.92;100.00
55932;BME280;41837;55.700;37.984;2023-03-03T07:20:46;98455.56;;;-1.08;100.00
55932;BME280;41837;55.700;37.984;2023-03-03T07:23:22;98498.81;;;-0.88;100.00
55932;BME280;41837;55.700;37.984;2023-03-03T07:25:50;98491.41;;;-1.05;100.00
55932;BME280;41837;55.700;37.984;2023-03-03T07:28:26;98487.09;;;-1.03;100.00
55932;BME280;41837;55.700;37.984;2023-03-03T07:30:54;98490.59;;;-1.09;100.00
55932;BME280;41837;55.700;37.984;2023-03-03T07:33:30;98498.41;;;-1.14;100.00
55932;BME280;41837;55.700;37.984;2023-03-03T07:36:02;98490.50;;;-1.03;100.00
55932;BME280;41837;55.700;37.984;2023-03-03T07:38:41;98490.16;;;-0.81;100.00
55932;BME280;41837;55.700;37.984;2023-03-03T07:41:17;98487.00;;;-0.49;100.00
55932;BME280;41837;55.700;37.984;2023-03-03T07:43:52;98491.22;;;-0.46;100.00
55932;BME280;41837;55.700;37.984;2023-03-03T07:46:41;98491.25;;;-0.48;100.00
55932;BME280;41837;55.700;37.984;2023-03-03T07:49:23;98490.19;;;-0.38;100.00
55932;BME280;41837;55.700;37.984;2023-03-03T07:51:56;98494.78;;;-0.53;100.00
55932;BME280;41837;55.700;37.984;2023-03-03T07:54:42;98488.84;;;-0.55;100.00
55932;BME280;41837;55.700;37.984;2023-03-03T07:57:14;98498.16;;;-0.51;100.00
55932;BME280;41837;55.700;37.984;2023-03-03T07:59:51;98491.19;;;-0.91;100.00
55932;BME280;41837;55.700;37.984;2023-03-03T08:04:56;98515.97;;;-0.90;100.00
55932;BME280;41837;55.700;37.984;2023-03-03T08:07:22;98511.91;;;-1.05;100.00
55932;BME280;41837;55.700;37.984;2023-03-03T08:09:48;98509.34;;;-1.05;100.00
55932;BME280;41837;55.700;37.984;2023-03-03T08:12:38;98514.06;;;-0.79;100.00
55932;BME280;41837;55.700;37.984;2023-03-03T08:15:24;98517.47;;;-0.79;100.00
55932;BME280;41837;55.700;37.984;2023-03-03T08:17:52;98515.66;;;-0.72;100.00
55932;BME280;41837;55.700;37.984;2023-03-03T08:20:46;98501.16;;;-0.74;100.00
55932;BME280;41837;55.700;37.984;2023-03-03T08:23:14;98505.28;;;-0.66;100.00
55932;BME280;41837;55.700;37.984;2023-03-03T08:25:41;98499.56;;;-0.33;100.00
55932;BME280;41837;55.700;37.984;2023-03-03T08:28:08;98497.81;;;-0.33;100.00
55932;BME280;41837;55.700;37.984;2023-03-03T08:30:35;98499.09;;;-0.10;100.00
55932;BME280;41837;55.700;37.984;2023-03-03T08:33:01;98475.84;;;-0.04;100.00
55932;BME280;41837;55.700;37.984;2023-03-03T08:35:27;98494.75;;;-0.07;100.00
55932;BME280;41837;55.700;37.984;2023-03-03T08:37:54;98498.50;;;0.19;100.00
55932;BME280;41837;55.700;37.984;2023-03-03T08:40:21;98497.78;;;0.53;100.00
55932;BME280;41837;55.700;37.984;2023-03-03T08:42:47;98500.19;;;0.20;100.00
55932;BME280;41837;55.700;37.984;2023-03-03T08:45:14;98499.13;;;0.29;100.00
55932;BME280;41837;55.700;37.984;2023-03-03T08:47:40;98504.41;;;-0.18;100.00
55932;BME280;41837;55.700;37.984;2023-03-03T08:50:08;98511.81;;;-0.04;100.00
55932;BME280;41837;55.700;37.984;2023-03-03T08:52:34;98510.97;;;-0.03;100.00
55932;BME280;41837;55.700;37.984;2023-03-03T08:55:02;98499.97;;;-0.11;100.00
55932;BME280;41837;55.700;37.984;2023-03-03T08:57:28;98487.75;;;-0.42;100.00
55932;BME280;41837;55.700;37.984;2023-03-03T08:59:55;98515.81;;;-0.33;100.00
55932;BME280;41837;55.700;37.984;2023-03-03T09:02:21;98511.13;;;-0.58;100.00
55932;BME280;41837;55.700;37.984;2023-03-03T09:04:47;98512.66;;;-0.47;100.00
55932;BME280;41837;55.700;37.984;2023-03-03T09:07:14;98512.50;;;-0.40;100.00
55932;BME280;41837;55.700;37.984;2023-03-03T09:09:40;98498.31;;;-0.59;100.00
55932;BME280;41837;55.700;37.984;2023-03-03T09:12:14;98497.53;;;-0.63;100.00
55932;BME280;41837;55.700;37.984;2023-03-03T09:14:42;98528.22;;;-0.57;100.00
55932;BME280;41837;55.700;37.984;2023-03-03T09:17:27;98525.59;;;-0.53;100.00
55932;BME280;41837;55.700;37.984;2023-03-03T09:19:59;98521.66;;;-0.26;100.00
55932;BME280;41837;55.700;37.984;2023-03-03T09:22:35;98517.03;;;-0.09;100.00
55932;BME280;41837;55.700;37.984;2023-03-03T09:25:17;98511.75;;;-0.45;100.00
55932;BME280;41837;55.700;37.984;2023-03-03T09:27:47;98519.94;;;-0.26;100.00
55932;BME280;41837;55.700;37.984;2023-03-03T09:30:44;98524.44;;;-0.37;100.00
55932;BME280;41837;55.700;37.984;2023-03-03T09:33:24;98520.59;;;-0.14;100.00
55932;BME280;41837;55.700;37.984;2023-03-03T09:36:02;98525.50;;;-0.04;100.00
55932;BME280;41837;55.700;37.984;2023-03-03T09:38:32;98531.47;;;0.00;100.00
55932;BME280;41837;55.700;37.984;2023-03-03T09:41:27;98529.56;;;0.08;100.00
55932;BME280;41837;55.700;37.984;2023-03-03T09:50:29;98525.69;;;0.31;100.00
55932;BME280;41837;55.700;37.984;2023-03-03T10:04:00;98517.75;;;0.40;100.00
55932;BME280;41837;55.700;37.984;2023-03-03T10:15:07;98513.75;;;0.66;100.00
55932;BME280;41837;55.700;37.984;2023-03-03T10:28:57;98492.53;;;0.93;100.00
55932;BME280;41837;55.700;37.984;2023-03-03T10:40:52;98490.38;;;0.77;100.00
55932;BME280;41837;55.700;37.984;2023-03-03T10:46:49;98515.00;;;0.49;100.00
55932;BME280;41837;55.700;37.984;2023-03-03T10:55:31;98515.41;;;0.31;100.00
55932;BME280;41837;55.700;37.984;2023-03-03T10:58:26;98518.50;;;0.45;100.00
55932;BME280;41837;55.700;37.984;2023-03-03T11:09:22;98531.06;;;0.18;100.00
55932;BME280;41837;55.700;37.984;2023-03-03T11:14:35;98531.66;;;0.31;100.00
55932;BME280;41837;55.700;37.984;2023-03-03T11:17:25;98524.53;;;0.44;100.00
55932;BME280;41837;55.700;37.984;2023-03-03T11:20:03;98517.34;;;0.59;100.00
55932;BME280;41837;55.700;37.984;2023-03-03T11:23:00;98518.25;;;0.56;99.01
55932;BME280;41837;55.700;37.984;2023-03-03T11:28:31;98513.88;;;0.99;95.86
55932;BME280;41837;55.700;37.984;2023-03-03T11:31:19;98514.63;;;1.02;94.63
55932;BME280;41837;55.700;37.984;2023-03-03T11:37:07;98514.84;;;0.93;93.75
55932;BME280;41837;55.700;37.984;2023-03-03T11:39:35;98508.97;;;0.88;94.36
55932;BME280;41837;55.700;37.984;2023-03-03T11:48:19;98519.03;;;0.97;95.10
55932;BME280;41837;55.700;37.984;2023-03-03T11:51:12;98532.44;;;0.74;97.06
55932;BME280;41837;55.700;37.984;2023-03-03T11:56:46;98523.22;;;0.25;100.00
55932;BME280;41837;55.700;37.984;2023-03-03T12:07:53;98513.78;;;0.25;100.00
55932;BME280;41837;55.700;37.984;2023-03-03T12:16:09;98536.81;;;0.70;100.00
55932;BME280;41837;55.700;37.984;2023-03-03T12:22:32;98533.06;;;0.46;100.00
55932;BME280;41837;55.700;37.984;2023-03-03T12:25:17;98543.66;;;0.32;100.00
55932;BME280;41837;55.700;37.984;2023-03-03T12:28:03;98538.09;;;0.51;100.00
55932;BME280;41837;55.700;37.984;2023-03-03T12:33:49;98533.94;;;0.45;100.00
55932;BME280;41837;55.700;37.984;2023-03-03T12:39:25;98536.31;;;0.54;100.00
55932;BME280;41837;55.700;37.984;2023-03-03T12:47:27;98529.06;;;1.08;99.48
55932;BME280;41837;55.700;37.984;2023-03-03T12:49:57;98525.28;;;0.87;98.99
55932;BME280;41837;55.700;37.984;2023-03-03T12:52:58;98527.91;;;0.85;97.72
55932;BME280;41837;55.700;37.984;2023-03-03T12:55:48;98528.00;;;0.81;97.32
55932;BME280;41837;55.700;37.984;2023-03-03T12:58:51;98536.06;;;0.65;97.27
55932;BME280;41837;55.700;37.984;2023-03-03T13:01:30;98526.56;;;0.69;95.34
55932;BME280;41837;55.700;37.984;2023-03-03T13:06:56;98518.50;;;0.83;94.85
55932;BME280;41837;55.700;37.984;2023-03-03T13:15:02;98533.81;;;0.11;97.45
55932;BME280;41837;55.700;37.984;2023-03-03T13:17:36;98525.84;;;-0.21;100.00
55932;BME280;41837;55.700;37.984;2023-03-03T13:23:07;98547.28;;;-0.22;100.00
55932;BME280;41837;55.700;37.984;2023-03-03T13:25:46;98536.19;;;-0.24;100.00
55932;BME280;41837;55.700;37.984;2023-03-03T13:28:24;98548.22;;;-0.27;100.00
55932;BME280;41837;55.700;37.984;2023-03-03T13:31:14;98545.03;;;-0.40;100.00
55932;BME280;41837;55.700;37.984;2023-03-03T13:33:50;98553.34;;;-0.27;100.00
55932;BME280;41837;55.700;37.984;2023-03-03T13:36:18;98555.69;;;-0.13;100.00
55932;BME280;41837;55.700;37.984;2023-03-03T13:38:49;98525.94;;;-0.25;100.00
55932;BME280;41837;55.700;37.984;2023-03-03T13:44:39;98537.47;;;-0.01;100.00
55932;BME280;41837;55.700;37.984;2023-03-03T13:47:34;98537.72;;;-0.13;100.00
55932;BME280;41837;55.700;37.984;2023-03-03T13:52:32;98541.13;;;-0.13;100.00
55932;BME280;41837;55.700;37.984;2023-03-03T13:55:16;98544.75;;;-0.25;100.00
55932;BME280;41837;55.700;37.984;2023-03-03T14:01:31;98540.44;;;-0.23;100.00
55932;BME280;41837;55.700;37.984;2023-03-03T14:04:39;98539.34;;;-0.11;100.00
55932;BME280;41837;55.700;37.984;2023-03-03T14:07:19;98536.97;;;-0.20;100.00
55932;BME280;41837;55.700;37.984;2023-03-03T14:13:02;98529.56;;;-0.35;100.00
55932;BME280;41837;55.700;37.984;2023-03-03T14:15:35;98532.09;;;-0.34;100.00
55932;BME280;41837;55.700;37.984;2023-03-03T14:20:53;98532.94;;;-0.33;100.00
55932;BME280;41837;55.700;37.984;2023-03-03T14:23:46;98520.50;;;-0.57;100.00
55932;BME280;41837;55.700;37.984;2023-03-03T14:26:13;98521.97;;;-0.42;100.00
55932;BME280;41837;55.700;37.984;2023-03-03T14:28:46;98525.53;;;-0.49;100.00
55932;BME280;41837;55.700;37.984;2023-03-03T14:31:40;98535.97;;;-0.61;100.00
55932;BME280;41837;55.700;37.984;2023-03-03T14:40:18;98534.38;;;-0.67;100.00
55932;BME280;41837;55.700;37.984;2023-03-03T14:45:37;98545.44;;;-0.63;100.00
55932;BME280;41837;55.700;37.984;2023-03-03T14:48:16;98544.53;;;-0.59;100.00
55932;BME280;41837;55.700;37.984;2023-03-03T14:50:57;98539.63;;;-0.73;100.00
55932;BME280;41837;55.700;37.984;2023-03-03T14:53:37;98542.22;;;-0.74;100.00
55932;BME280;41837;55.700;37.984;2023-03-03T14:56:32;98543.00;;;-0.71;100.00
55932;BME280;41837;55.700;37.984;2023-03-03T14:59:21;98554.97;;;-0.70;100.00
55932;BME280;41837;55.700;37.984;2023-03-03T15:04:26;98557.59;;;-0.73;100.00
55932;BME280;41837;55.700;37.984;2023-03-03T15:06:56;98555.88;;;-0.72;100.00
55932;BME280;41837;55.700;37.984;2023-03-03T15:09:39;98567.88;;;-0.74;100.00
55932;BME280;41837;55.700;37.984;2023-03-03T15:12:20;98561.88;;;-0.75;100.00
55932;BME280;41837;55.700;37.984;2023-03-03T15:14:53;98573.94;;;-0.80;100.00
55932;BME280;41837;55.700;37.984;2023-03-03T15:22:37;98571.50;;;-0.86;100.00
55932;BME280;41837;55.700;37.984;2023-03-03T15:28:05;98572.38;;;-0.89;100.00
55932;BME280;41837;55.700;37.984;2023-03-03T15:33:22;98564.75;;;-0.95;100.00
55932;BME280;41837;55.700;37.984;2023-03-03T15:38:49;98572.41;;;-0.90;100.00
55932;BME280;41837;55.700;37.984;2023-03-03T15:46:47;98583.56;;;-0.91;100.00
55932;BME280;41837;55.700;37.984;2023-03-03T15:51:53;98578.59;;;-1.04;100.00
55932;BME280;41837;55.700;37.984;2023-03-03T16:05:15;98579.47;;;-1.05;100.00
55932;BME280;41837;55.700;37.984;2023-03-03T16:14:18;98573.44;;;-1.04;100.00
55932;BME280;41837;55.700;37.984;2023-03-03T16:16:59;98577.69;;;-1.00;100.00
55932;BME280;41837;55.700;37.984;2023-03-03T16:19:49;98572.56;;;-1.00;100.00
55932;BME280;41837;55.700;37.984;2023-03-03T16:27:30;98576.00;;;-1.04;100.00
55932;BME280;41837;55.700;37.984;2023-03-03T16:30:27;98576.78;;;-0.99;100.00
55932;BME280;41837;55.700;37.984;2023-03-03T16:33:26;98581.13;;;-1.02;100.00
55932;BME280;41837;55.700;37.984;2023-03-03T16:38:50;98564.97;;;-1.09;100.00
55932;BME280;41837;55.700;37.984;2023-03-03T16:46:44;98570.84;;;-1.01;100.00
55932;BME280;41837;55.700;37.984;2023-03-03T16:49:25;98568.25;;;-0.99;100.00
55932;BME280;41837;55.700;37.984;2023-03-03T16:52:06;98581.16;;;-1.05;100.00
55932;BME280;41837;55.700;37.984;2023-03-03T16:54:53;98574.31;;;-1.02;100.00